sensor_id;sensor_type;location;lat;lon;timestamp;temperature;humidity
30572;DHT22;17348;50.948;10.696;2022-07-22T00:00:41;19.60;99.90
30572;DHT22;17348;50.948;10.696;2022-07-22T00:03:46;19.60;99.90
30572;DHT22;17348;50.948;10.696;2022-07-22T00:06:49;19.60;99.90
30572;DHT22;17348;50.948;10.696;2022-07-22T00:09:51;19.60;99.90
30572;DHT22;17348;50.948;10.696;2022-07-22T00:12:54;19.60;99.90
30572;DHT22;17348;50.948;10.696;2022-07-22T00:15:56;19.50;99.90
30572;DHT22;17348;50.948;10.696;2022-07-22T00:18:58;19.60;99.90
30572;DHT22;17348;50.948;10.696;2022-07-22T00:22:02;19.60;99.90
30572;DHT22;17348;50.948;10.696;2022-07-22T00:25:06;19.60;99.90
30572;DHT22;17348;50.948;10.696;2022-07-22T00:28:08;19.50;99.90
30572;DHT22;17348;50.948;10.696;2022-07-22T00:31:10;19.60;99.90
30572;DHT22;17348;50.948;10.696;2022-07-22T00:34:13;19.60;99.90
30572;DHT22;17348;50.948;10.696;2022-07-22T00:37:16;19.60;99.90
30572;DHT22;17348;50.948;10.696;2022-07-22T00:40:19;19.70;99.90
30572;DHT22;17348;50.948;10.696;2022-07-22T00:43:21;19.70;99.90
30572;DHT22;17348;50.948;10.696;2022-07-22T00:46:24;19.70;99.90
30572;DHT22;17348;50.948;10.696;2022-07-22T00:49:29;19.70;99.90
30572;DHT22;17348;50.948;10.696;2022-07-22T00:52:34;19.70;99.90
30572;DHT22;17348;50.948;10.696;2022-07-22T00:55:37;19.70;99.90
30572;DHT22;17348;50.948;10.696;2022-07-22T00:58:40;19.70;99.90
30572;DHT22;17348;50.948;10.696;2022-07-22T01:01:42;19.70;99.90
30572;DHT22;17348;50.948;10.696;2022-07-22T01:04:45;19.70;99.90
30572;DHT22;17348;50.948;10.696;2022-07-22T01:07:48;19.70;99.90
30572;DHT22;17348;50.948;10.696;2022-07-22T01:10:51;19.70;99.90
30572;DHT22;17348;50.948;10.696;2022-07-22T01:13:56;19.70;99.90
30572;DHT22;17348;50.948;10.696;2022-07-22T01:16:59;19.80;99.90
30572;DHT22;17348;50.948;10.696;2022-07-22T01:20:03;19.80;99.90
30572;DHT22;17348;50.948;10.696;2022-07-22T01:23:05;19.80;99.90
30572;DHT22;17348;50.948;10.696;2022-07-22T01:26:08;19.80;99.90
30572;DHT22;17348;50.948;10.696;2022-07-22T01:29:10;19.70;99.90
30572;DHT22;17348;50.948;10.696;2022-07-22T01:32:12;19.70;99.90
30572;DHT22;17348;50.948;10.696;2022-07-22T01:35:16;19.60;99.90
30572;DHT22;17348;50.948;10.696;2022-07-22T01:38:18;19.60;99.90
30572;DHT22;17348;50.948;10.696;2022-07-22T01:41:21;19.60;99.90
30572;DHT22;17348;50.948;10.696;2022-07-22T01:44:23;19.60;99.90
30572;DHT22;17348;50.948;10.696;2022-07-22T01:47:25;19.50;99.90
30572;DHT22;17348;50.948;10.696;2022-07-22T01:50:29;19.40;99.90
30572;DHT22;17348;50.948;10.696;2022-07-22T01:53:32;19.40;99.90
30572;DHT22;17348;50.948;10.696;2022-07-22T01:56:34;19.40;99.90
30572;DHT22;17348;50.948;10.696;2022-07-22T01:59:36;19.30;99.90
30572;DHT22;17348;50.948;10.696;2022-07-22T02:02:39;19.30;99.90
30572;DHT22;17348;50.948;10.696;2022-07-22T02:05:43;19.30;99.90
30572;DHT22;17348;50.948;10.696;2022-07-22T02:08:46;19.30;99.90
30572;DHT22;17348;50.948;10.696;2022-07-22T02:11:48;19.20;99.90
30572;DHT22;17348;50.948;10.696;2022-07-22T02:14:50;19.20;99.90
30572;DHT22;17348;50.948;10.696;2022-07-22T02:17:53;19.20;99.90
30572;DHT22;17348;50.948;10.696;2022-07-22T02:20:56;19.20;99.90
30572;DHT22;17348;50.948;10.696;2022-07-22T02:23:59;19.10;99.90
30572;DHT22;17348;50.948;10.696;2022-07-22T02:27:02;19.10;99.90
30572;DHT22;17348;50.948;10.696;2022-07-22T02:30:05;19.10;99.90
30572;DHT22;17348;50.948;10.696;2022-07-22T02:33:08;19.10;99.90
30572;DHT22;17348;50.948;10.696;2022-07-22T02:36:12;19.00;99.90
30572;DHT22;17348;50.948;10.696;2022-07-22T02:39:14;19.00;99.90
30572;DHT22;17348;50.948;10.696;2022-07-22T02:42:16;19.00;99.90
30572;DHT22;17348;50.948;10.696;2022-07-22T02:45:19;19.00;99.90
30572;DHT22;17348;50.948;10.696;2022-07-22T02:48:21;18.90;99.90
30572;DHT22;17348;50.948;10.696;2022-07-22T02:51:25;18.90;99.90
30572;DHT22;17348;50.948;10.696;2022-07-22T02:54:27;18.90;99.90
30572;DHT22;17348;50.948;10.696;2022-07-22T02:57:29;18.90;99.90
30572;DHT22;17348;50.948;10.696;2022-07-22T03:00:32;18.90;99.90
30572;DHT22;17348;50.948;10.696;2022-07-22T03:03:34;18.90;99.90
30572;DHT22;17348;50.948;10.696;2022-07-22T03:06:38;18.90;99.90
30572;DHT22;17348;50.948;10.696;2022-07-22T03:09:40;18.90;99.90
30572;DHT22;17348;50.948;10.696;2022-07-22T03:12:43;18.90;99.90
30572;DHT22;17348;50.948;10.696;2022-07-22T03:15:45;18.90;99.90
30572;DHT22;17348;50.948;10.696;2022-07-22T03:18:47;18.90;99.90
30572;DHT22;17348;50.948;10.696;2022-07-22T03:21:51;19.00;99.90
30572;DHT22;17348;50.948;10.696;2022-07-22T03:24:53;19.00;99.90
30572;DHT22;17348;50.948;10.696;2022-07-22T03:27:55;19.00;99.90
30572;DHT22;17348;50.948;10.696;2022-07-22T03:30:58;19.00;99.90
30572;DHT22;17348;50.948;10.696;2022-07-22T03:34:00;19.00;99.90
30572;DHT22;17348;50.948;10.696;2022-07-22T03:37:04;19.00;99.90
30572;DHT22;17348;50.948;10.696;2022-07-22T03:40:07;19.00;99.90
30572;DHT22;17348;50.948;10.696;2022-07-22T03:43:09;19.00;99.90
30572;DHT22;17348;50.948;10.696;2022-07-22T03:46:11;19.00;99.90
30572;DHT22;17348;50.948;10.696;2022-07-22T03:49:14;19.00;99.90
30572;DHT22;17348;50.948;10.696;2022-07-22T03:52:17;19.00;99.90
30572;DHT22;17348;50.948;10.696;2022-07-22T03:55:20;19.10;99.90
30572;DHT22;17348;50.948;10.696;2022-07-22T03:58:23;19.10;99.90
30572;DHT22;17348;50.948;10.696;2022-07-22T04:01:25;19.10;99.90
30572;DHT22;17348;50.948;10.696;2022-07-22T04:04:27;19.20;99.90
30572;DHT22;17348;50.948;10.696;2022-07-22T04:07:31;19.20;99.90
30572;DHT22;17348;50.948;10.696;2022-07-22T04:10:33;19.30;99.90
30572;DHT22;17348;50.948;10.696;2022-07-22T04:13:36;19.20;99.90
30572;DHT22;17348;50.948;10.696;2022-07-22T04:16:38;19.20;99.90
30572;DHT22;17348;50.948;10.696;2022-07-22T04:19:40;19.20;99.90
30572;DHT22;17348;50.948;10.696;2022-07-22T04:22:44;19.20;99.90
30572;DHT22;17348;50.948;10.696;2022-07-22T04:25:46;19.20;99.90
30572;DHT22;17348;50.948;10.696;2022-07-22T04:28:48;19.20;99.90
30572;DHT22;17348;50.948;10.696;2022-07-22T04:31:51;19.20;99.90
30572;DHT22;17348;50.948;10.696;2022-07-22T04:34:53;19.20;99.90
30572;DHT22;17348;50.948;10.696;2022-07-22T04:37:56;19.30;99.90
30572;DHT22;17348;50.948;10.696;2022-07-22T04:40:59;19.40;99.90
30572;DHT22;17348;50.948;10.696;2022-07-22T04:44:01;19.40;99.90
30572;DHT22;17348;50.948;10.696;2022-07-22T04:47:04;19.40;99.90
30572;DHT22;17348;50.948;10.696;2022-07-22T04:50:07;19.50;99.90
30572;DHT22;17348;50.948;10.696;2022-07-22T04:53:11;19.50;99.90
30572;DHT22;17348;50.948;10.696;2022-07-22T04:56:13;19.60;99.90
30572;DHT22;17348;50.948;10.696;2022-07-22T04:59:16;19.50;99.90
30572;DHT22;17348;50.948;10.696;2022-07-22T05:02:18;19.60;99.90
30572;DHT22;17348;50.948;10.696;2022-07-22T05:05:21;19.60;99.90
30572;DHT22;17348;50.948;10.696;2022-07-22T05:08:24;19.60;99.90
30572;DHT22;17348;50.948;10.696;2022-07-22T05:11:27;19.60;99.90
30572;DHT22;17348;50.948;10.696;2022-07-22T05:14:29;19.60;99.90
30572;DHT22;17348;50.948;10.696;2022-07-22T05:17:31;19.60;99.90
30572;DHT22;17348;50.948;10.696;2022-07-22T05:20:34;19.60;99.90
30572;DHT22;17348;50.948;10.696;2022-07-22T05:23:39;19.60;99.90
30572;DHT22;17348;50.948;10.696;2022-07-22T05:26:41;19.70;99.90
30572;DHT22;17348;50.948;10.696;2022-07-22T05:29:43;19.80;99.90
30572;DHT22;17348;50.948;10.696;2022-07-22T05:32:45;19.90;99.90
30572;DHT22;17348;50.948;10.696;2022-07-22T05:35:48;19.90;99.90
30572;DHT22;17348;50.948;10.696;2022-07-22T05:38:51;20.00;99.90
30572;DHT22;17348;50.948;10.696;2022-07-22T05:41:53;20.00;99.90
30572;DHT22;17348;50.948;10.696;2022-07-22T05:44:56;20.00;99.90
30572;DHT22;17348;50.948;10.696;2022-07-22T05:47:58;20.20;99.90
30572;DHT22;17348;50.948;10.696;2022-07-22T05:51:02;20.30;99.90
30572;DHT22;17348;50.948;10.696;2022-07-22T05:54:06;20.30;99.90
30572;DHT22;17348;50.948;10.696;2022-07-22T05:57:08;20.30;99.90
30572;DHT22;17348;50.948;10.696;2022-07-22T06:00:11;20.30;99.90
30572;DHT22;17348;50.948;10.696;2022-07-22T06:03:17;20.30;99.90
30572;DHT22;17348;50.948;10.696;2022-07-22T06:06:20;20.30;99.90
30572;DHT22;17348;50.948;10.696;2022-07-22T06:09:23;20.30;99.90
30572;DHT22;17348;50.948;10.696;2022-07-22T06:12:26;20.20;99.90
30572;DHT22;17348;50.948;10.696;2022-07-22T06:15:28;20.30;99.90
30572;DHT22;17348;50.948;10.696;2022-07-22T06:18:30;20.30;99.90
30572;DHT22;17348;50.948;10.696;2022-07-22T06:21:33;20.20;99.90
30572;DHT22;17348;50.948;10.696;2022-07-22T06:24:36;20.20;99.90
30572;DHT22;17348;50.948;10.696;2022-07-22T06:27:39;20.20;99.90
30572;DHT22;17348;50.948;10.696;2022-07-22T06:30:43;20.20;99.90
30572;DHT22;17348;50.948;10.696;2022-07-22T06:33:45;20.20;99.90
30572;DHT22;17348;50.948;10.696;2022-07-22T06:36:47;20.30;99.90
30572;DHT22;17348;50.948;10.696;2022-07-22T06:39:51;20.20;99.90
30572;DHT22;17348;50.948;10.696;2022-07-22T06:42:53;20.30;99.90
30572;DHT22;17348;50.948;10.696;2022-07-22T06:45:56;20.30;99.90
30572;DHT22;17348;50.948;10.696;2022-07-22T06:48:58;20.30;99.90
30572;DHT22;17348;50.948;10.696;2022-07-22T06:52:00;20.40;99.90
30572;DHT22;17348;50.948;10.696;2022-07-22T06:55:05;20.40;99.90
30572;DHT22;17348;50.948;10.696;2022-07-22T06:58:08;20.40;99.90
30572;DHT22;17348;50.948;10.696;2022-07-22T07:01:10;20.50;99.90
30572;DHT22;17348;50.948;10.696;2022-07-22T07:04:12;20.70;99.90
30572;DHT22;17348;50.948;10.696;2022-07-22T07:07:15;20.70;99.90
30572;DHT22;17348;50.948;10.696;2022-07-22T07:10:19;20.80;99.90
30572;DHT22;17348;50.948;10.696;2022-07-22T07:13:21;20.80;99.90
30572;DHT22;17348;50.948;10.696;2022-07-22T07:16:24;20.70;99.90
30572;DHT22;17348;50.948;10.696;2022-07-22T07:19:27;20.60;99.90
30572;DHT22;17348;50.948;10.696;2022-07-22T07:22:29;20.60;99.90
30572;DHT22;17348;50.948;10.696;2022-07-22T07:25:33;20.60;99.90
30572;DHT22;17348;50.948;10.696;2022-07-22T07:28:35;20.70;99.90
30572;DHT22;17348;50.948;10.696;2022-07-22T07:31:38;20.60;99.90
30572;DHT22;17348;50.948;10.696;2022-07-22T07:34:40;20.70;99.90
30572;DHT22;17348;50.948;10.696;2022-07-22T07:37:42;20.70;99.90
30572;DHT22;17348;50.948;10.696;2022-07-22T07:40:49;20.70;99.90
30572;DHT22;17348;50.948;10.696;2022-07-22T07:43:51;20.70;99.90
30572;DHT22;17348;50.948;10.696;2022-07-22T07:46:53;20.80;99.90
30572;DHT22;17348;50.948;10.696;2022-07-22T07:49:56;20.90;99.90
30572;DHT22;17348;50.948;10.696;2022-07-22T07:53:00;20.90;99.90
30572;DHT22;17348;50.948;10.696;2022-07-22T07:56:04;20.80;99.90
30572;DHT22;17348;50.948;10.696;2022-07-22T07:59:06;20.80;99.90
30572;DHT22;17348;50.948;10.696;2022-07-22T08:02:09;20.80;99.90
30572;DHT22;17348;50.948;10.696;2022-07-22T08:05:12;20.90;99.90
30572;DHT22;17348;50.948;10.696;2022-07-22T08:08:14;20.80;99.90
30572;DHT22;17348;50.948;10.696;2022-07-22T08:11:18;20.80;99.90
30572;DHT22;17348;50.948;10.696;2022-07-22T08:14:20;20.70;99.90
30572;DHT22;17348;50.948;10.696;2022-07-22T08:17:24;20.70;99.90
30572;DHT22;17348;50.948;10.696;2022-07-22T08:20:27;20.70;99.90
30572;DHT22;17348;50.948;10.696;2022-07-22T08:23:30;20.80;99.90
30572;DHT22;17348;50.948;10.696;2022-07-22T08:26:34;20.80;99.90
30572;DHT22;17348;50.948;10.696;2022-07-22T08:29:36;20.90;99.90
30572;DHT22;17348;50.948;10.696;2022-07-22T08:32:39;21.10;99.90
30572;DHT22;17348;50.948;10.696;2022-07-22T08:35:41;21.20;99.90
30572;DHT22;17348;50.948;10.696;2022-07-22T08:38:43;21.30;99.90
30572;DHT22;17348;50.948;10.696;2022-07-22T08:41:47;21.40;99.90
30572;DHT22;17348;50.948;10.696;2022-07-22T08:44:49;21.70;99.90
30572;DHT22;17348;50.948;10.696;2022-07-22T08:47:52;21.90;99.90
30572;DHT22;17348;50.948;10.696;2022-07-22T08:50:54;22.10;99.90
30572;DHT22;17348;50.948;10.696;2022-07-22T08:53:57;22.30;99.90
30572;DHT22;17348;50.948;10.696;2022-07-22T08:57:00;22.50;99.90
30572;DHT22;17348;50.948;10.696;2022-07-22T09:00:09;22.60;99.90
30572;DHT22;17348;50.948;10.696;2022-07-22T09:03:23;22.50;99.90
30572;DHT22;17348;50.948;10.696;2022-07-22T09:06:28;22.60;99.90
30572;DHT22;17348;50.948;10.696;2022-07-22T09:09:34;22.70;99.90
30572;DHT22;17348;50.948;10.696;2022-07-22T09:12:51;22.90;99.90
30572;DHT22;17348;50.948;10.696;2022-07-22T09:15:54;22.90;99.90
30572;DHT22;17348;50.948;10.696;2022-07-22T09:18:57;23.00;99.90
30572;DHT22;17348;50.948;10.696;2022-07-22T09:21:59;23.10;99.90
30572;DHT22;17348;50.948;10.696;2022-07-22T09:25:20;23.30;99.90
30572;DHT22;17348;50.948;10.696;2022-07-22T09:28:25;23.20;99.90
30572;DHT22;17348;50.948;10.696;2022-07-22T09:31:30;23.40;99.90
30572;DHT22;17348;50.948;10.696;2022-07-22T09:34:32;23.50;99.90
30572;DHT22;17348;50.948;10.696;2022-07-22T09:37:35;23.60;99.90
30572;DHT22;17348;50.948;10.696;2022-07-22T09:40:38;23.80;99.90
30572;DHT22;17348;50.948;10.696;2022-07-22T09:43:43;24.00;99.90
30572;DHT22;17348;50.948;10.696;2022-07-22T09:46:45;23.90;99.90
30572;DHT22;17348;50.948;10.696;2022-07-22T09:49:47;23.90;99.90
30572;DHT22;17348;50.948;10.696;2022-07-22T09:52:51;24.00;99.90
30572;DHT22;17348;50.948;10.696;2022-07-22T09:55:54;24.00;99.90
30572;DHT22;17348;50.948;10.696;2022-07-22T09:58:57;24.20;99.90
30572;DHT22;17348;50.948;10.696;2022-07-22T10:02:03;24.30;99.90
30572;DHT22;17348;50.948;10.696;2022-07-22T10:05:06;24.50;99.90
30572;DHT22;17348;50.948;10.696;2022-07-22T10:08:09;24.50;99.90
30572;DHT22;17348;50.948;10.696;2022-07-22T10:11:12;24.70;99.90
30572;DHT22;17348;50.948;10.696;2022-07-22T10:14:17;24.70;99.90
30572;DHT22;17348;50.948;10.696;2022-07-22T10:17:20;24.60;99.90
30572;DHT22;17348;50.948;10.696;2022-07-22T10:20:24;24.70;99.90
30572;DHT22;17348;50.948;10.696;2022-07-22T10:23:26;24.70;99.90
30572;DHT22;17348;50.948;10.696;2022-07-22T10:26:47;24.90;99.90
30572;DHT22;17348;50.948;10.696;2022-07-22T10:29:51;25.10;99.90
30572;DHT22;17348;50.948;10.696;2022-07-22T10:33:06;25.10;99.90
30572;DHT22;17348;50.948;10.696;2022-07-22T10:36:08;25.00;99.90
30572;DHT22;17348;50.948;10.696;2022-07-22T10:39:12;25.10;99.90
30572;DHT22;17348;50.948;10.696;2022-07-22T10:42:15;25.20;99.90
30572;DHT22;17348;50.948;10.696;2022-07-22T10:45:18;25.20;99.90
30572;DHT22;17348;50.948;10.696;2022-07-22T10:48:24;25.40;99.90
30572;DHT22;17348;50.948;10.696;2022-07-22T10:51:26;25.70;99.90
30572;DHT22;17348;50.948;10.696;2022-07-22T10:54:29;25.70;99.90
30572;DHT22;17348;50.948;10.696;2022-07-22T10:57:31;25.70;99.90
30572;DHT22;17348;50.948;10.696;2022-07-22T11:00:35;25.90;99.90
30572;DHT22;17348;50.948;10.696;2022-07-22T11:03:40;25.90;99.90
30572;DHT22;17348;50.948;10.696;2022-07-22T11:06:44;25.90;99.90
30572;DHT22;17348;50.948;10.696;2022-07-22T11:09:47;26.10;99.90
30572;DHT22;17348;50.948;10.696;2022-07-22T11:12:49;26.10;99.90
30572;DHT22;17348;50.948;10.696;2022-07-22T11:15:53;26.00;99.90
30572;DHT22;17348;50.948;10.696;2022-07-22T11:18:57;26.10;99.90
30572;DHT22;17348;50.948;10.696;2022-07-22T11:22:03;26.10;99.80
30572;DHT22;17348;50.948;10.696;2022-07-22T11:25:07;26.20;99.70
30572;DHT22;17348;50.948;10.696;2022-07-22T11:28:09;26.30;99.90
30572;DHT22;17348;50.948;10.696;2022-07-22T11:31:16;26.40;99.80
30572;DHT22;17348;50.948;10.696;2022-07-22T11:34:19;26.50;99.60
30572;DHT22;17348;50.948;10.696;2022-07-22T11:37:24;26.50;99.50
30572;DHT22;17348;50.948;10.696;2022-07-22T11:40:32;26.70;98.90
30572;DHT22;17348;50.948;10.696;2022-07-22T11:43:41;26.90;98.70
30572;DHT22;17348;50.948;10.696;2022-07-22T11:46:45;26.80;98.20
30572;DHT22;17348;50.948;10.696;2022-07-22T11:49:47;26.90;98.20
30572;DHT22;17348;50.948;10.696;2022-07-22T11:52:52;26.80;97.70
30572;DHT22;17348;50.948;10.696;2022-07-22T11:55:57;26.80;97.80
30572;DHT22;17348;50.948;10.696;2022-07-22T11:58:59;26.80;97.60
30572;DHT22;17348;50.948;10.696;2022-07-22T12:02:07;26.80;97.80
30572;DHT22;17348;50.948;10.696;2022-07-22T12:05:12;26.80;97.10
30572;DHT22;17348;50.948;10.696;2022-07-22T12:08:15;26.90;97.50
30572;DHT22;17348;50.948;10.696;2022-07-22T12:11:18;27.00;97.20
30572;DHT22;17348;50.948;10.696;2022-07-22T12:14:23;27.00;96.80
30572;DHT22;17348;50.948;10.696;2022-07-22T12:17:28;27.00;97.00
30572;DHT22;17348;50.948;10.696;2022-07-22T12:20:30;27.10;96.80
30572;DHT22;17348;50.948;10.696;2022-07-22T12:23:33;27.20;96.60
30572;DHT22;17348;50.948;10.696;2022-07-22T12:26:40;27.40;96.50
30572;DHT22;17348;50.948;10.696;2022-07-22T12:29:45;27.40;96.00
30572;DHT22;17348;50.948;10.696;2022-07-22T12:32:49;27.30;96.20
30572;DHT22;17348;50.948;10.696;2022-07-22T12:36:02;27.40;95.80
30572;DHT22;17348;50.948;10.696;2022-07-22T12:39:15;27.30;95.90
30572;DHT22;17348;50.948;10.696;2022-07-22T12:42:17;27.40;95.90
30572;DHT22;17348;50.948;10.696;2022-07-22T12:45:19;27.40;95.80
30572;DHT22;17348;50.948;10.696;2022-07-22T12:48:28;27.50;95.80
30572;DHT22;17348;50.948;10.696;2022-07-22T12:51:30;27.70;95.50
30572;DHT22;17348;50.948;10.696;2022-07-22T12:54:33;28.00;95.00
30572;DHT22;17348;50.948;10.696;2022-07-22T12:57:35;28.00;94.40
30572;DHT22;17348;50.948;10.696;2022-07-22T13:00:39;27.80;94.40
30572;DHT22;17348;50.948;10.696;2022-07-22T13:03:43;27.80;94.40
30572;DHT22;17348;50.948;10.696;2022-07-22T13:06:45;27.80;94.30
30572;DHT22;17348;50.948;10.696;2022-07-22T13:09:47;27.70;94.20
30572;DHT22;17348;50.948;10.696;2022-07-22T13:12:53;27.80;94.50
30572;DHT22;17348;50.948;10.696;2022-07-22T13:15:56;28.00;94.30
30572;DHT22;17348;50.948;10.696;2022-07-22T13:18:59;27.90;93.70
30572;DHT22;17348;50.948;10.696;2022-07-22T13:22:02;27.90;94.00
30572;DHT22;17348;50.948;10.696;2022-07-22T13:25:05;28.00;93.30
30572;DHT22;17348;50.948;10.696;2022-07-22T13:28:09;28.00;93.30
30572;DHT22;17348;50.948;10.696;2022-07-22T13:31:14;27.90;93.10
30572;DHT22;17348;50.948;10.696;2022-07-22T13:34:18;28.00;93.30
30572;DHT22;17348;50.948;10.696;2022-07-22T13:37:20;28.10;93.30
30572;DHT22;17348;50.948;10.696;2022-07-22T13:40:23;28.20;92.70
30572;DHT22;17348;50.948;10.696;2022-07-22T13:43:25;28.20;92.40
30572;DHT22;17348;50.948;10.696;2022-07-22T13:46:28;28.30;92.50
30572;DHT22;17348;50.948;10.696;2022-07-22T13:49:31;28.20;92.30
30572;DHT22;17348;50.948;10.696;2022-07-22T13:52:34;28.20;92.30
30572;DHT22;17348;50.948;10.696;2022-07-22T13:55:37;28.30;92.50
30572;DHT22;17348;50.948;10.696;2022-07-22T13:58:40;28.50;92.20
30572;DHT22;17348;50.948;10.696;2022-07-22T14:01:43;28.60;91.90
30572;DHT22;17348;50.948;10.696;2022-07-22T14:04:47;28.60;91.50
30572;DHT22;17348;50.948;10.696;2022-07-22T14:07:49;28.80;91.50
30572;DHT22;17348;50.948;10.696;2022-07-22T14:10:51;28.90;91.30
30572;DHT22;17348;50.948;10.696;2022-07-22T14:13:53;28.70;91.00
30572;DHT22;17348;50.948;10.696;2022-07-22T14:16:56;28.60;91.10
30572;DHT22;17348;50.948;10.696;2022-07-22T14:19:59;28.60;90.90
30572;DHT22;17348;50.948;10.696;2022-07-22T14:23:03;28.60;90.90
30572;DHT22;17348;50.948;10.696;2022-07-22T14:26:06;28.50;91.10
30572;DHT22;17348;50.948;10.696;2022-07-22T14:29:08;28.50;90.70
30572;DHT22;17348;50.948;10.696;2022-07-22T14:32:10;28.50;91.00
30572;DHT22;17348;50.948;10.696;2022-07-22T14:35:14;28.40;90.60
30572;DHT22;17348;50.948;10.696;2022-07-22T14:38:16;28.50;91.00
30572;DHT22;17348;50.948;10.696;2022-07-22T14:41:22;28.50;90.40
30572;DHT22;17348;50.948;10.696;2022-07-22T14:44:24;28.50;90.30
30572;DHT22;17348;50.948;10.696;2022-07-22T14:47:27;28.40;90.50
30572;DHT22;17348;50.948;10.696;2022-07-22T14:50:30;28.40;91.00
30572;DHT22;17348;50.948;10.696;2022-07-22T14:53:33;28.40;91.10
30572;DHT22;17348;50.948;10.696;2022-07-22T14:56:35;28.50;90.90
30572;DHT22;17348;50.948;10.696;2022-07-22T14:59:38;28.60;91.00
30572;DHT22;17348;50.948;10.696;2022-07-22T15:02:40;28.60;90.70
30572;DHT22;17348;50.948;10.696;2022-07-22T15:05:43;28.60;91.00
30572;DHT22;17348;50.948;10.696;2022-07-22T15:08:46;28.70;90.90
30572;DHT22;17348;50.948;10.696;2022-07-22T15:11:48;28.70;90.60
30572;DHT22;17348;50.948;10.696;2022-07-22T15:14:51;28.70;90.70
30572;DHT22;17348;50.948;10.696;2022-07-22T15:17:58;28.70;90.60
30572;DHT22;17348;50.948;10.696;2022-07-22T15:21:02;28.70;90.40
30572;DHT22;17348;50.948;10.696;2022-07-22T15:24:04;28.70;90.30
30572;DHT22;17348;50.948;10.696;2022-07-22T15:27:09;28.70;90.60
30572;DHT22;17348;50.948;10.696;2022-07-22T15:30:12;28.60;90.20
30572;DHT22;17348;50.948;10.696;2022-07-22T15:33:15;28.60;90.40
30572;DHT22;17348;50.948;10.696;2022-07-22T15:36:19;28.70;90.50
30572;DHT22;17348;50.948;10.696;2022-07-22T15:39:26;28.60;90.30
30572;DHT22;17348;50.948;10.696;2022-07-22T15:42:28;28.70;90.40
30572;DHT22;17348;50.948;10.696;2022-07-22T15:45:31;28.60;90.20
30572;DHT22;17348;50.948;10.696;2022-07-22T15:48:33;28.60;90.50
30572;DHT22;17348;50.948;10.696;2022-07-22T15:51:37;28.50;90.50
30572;DHT22;17348;50.948;10.696;2022-07-22T15:54:39;28.40;90.60
30572;DHT22;17348;50.948;10.696;2022-07-22T15:57:42;28.40;90.60
30572;DHT22;17348;50.948;10.696;2022-07-22T16:01:01;28.30;90.60
30572;DHT22;17348;50.948;10.696;2022-07-22T16:04:04;28.30;90.80
30572;DHT22;17348;50.948;10.696;2022-07-22T16:07:07;28.30;90.80
30572;DHT22;17348;50.948;10.696;2022-07-22T16:10:10;28.20;91.00
30572;DHT22;17348;50.948;10.696;2022-07-22T16:13:12;28.30;90.70
30572;DHT22;17348;50.948;10.696;2022-07-22T16:16:14;28.20;91.20
30572;DHT22;17348;50.948;10.696;2022-07-22T16:19:17;28.20;90.90
30572;DHT22;17348;50.948;10.696;2022-07-22T16:22:20;28.20;90.70
30572;DHT22;17348;50.948;10.696;2022-07-22T16:25:23;28.10;90.90
30572;DHT22;17348;50.948;10.696;2022-07-22T16:28:25;28.10;90.80
30572;DHT22;17348;50.948;10.696;2022-07-22T16:31:27;28.00;90.70
30572;DHT22;17348;50.948;10.696;2022-07-22T16:34:29;28.00;90.80
30572;DHT22;17348;50.948;10.696;2022-07-22T16:37:33;28.00;91.00
30572;DHT22;17348;50.948;10.696;2022-07-22T16:40:36;28.00;91.00
30572;DHT22;17348;50.948;10.696;2022-07-22T16:43:38;28.10;91.10
30572;DHT22;17348;50.948;10.696;2022-07-22T16:46:41;28.00;91.10
30572;DHT22;17348;50.948;10.696;2022-07-22T16:49:44;27.80;91.10
30572;DHT22;17348;50.948;10.696;2022-07-22T16:52:47;27.60;91.30
30572;DHT22;17348;50.948;10.696;2022-07-22T16:55:50;27.50;91.50
30572;DHT22;17348;50.948;10.696;2022-07-22T16:58:52;27.40;91.50
30572;DHT22;17348;50.948;10.696;2022-07-22T17:01:54;27.30;91.70
30572;DHT22;17348;50.948;10.696;2022-07-22T17:04:57;27.40;91.70
30572;DHT22;17348;50.948;10.696;2022-07-22T17:08:00;27.40;91.80
30572;DHT22;17348;50.948;10.696;2022-07-22T17:11:03;27.40;91.70
30572;DHT22;17348;50.948;10.696;2022-07-22T17:14:05;27.40;91.90
30572;DHT22;17348;50.948;10.696;2022-07-22T17:17:07;27.40;91.80
30572;DHT22;17348;50.948;10.696;2022-07-22T17:20:11;27.20;91.90
30572;DHT22;17348;50.948;10.696;2022-07-22T17:23:15;27.20;92.20
30572;DHT22;17348;50.948;10.696;2022-07-22T17:26:18;27.10;92.20
30572;DHT22;17348;50.948;10.696;2022-07-22T17:29:20;27.10;92.30
30572;DHT22;17348;50.948;10.696;2022-07-22T17:32:22;27.10;92.80
30572;DHT22;17348;50.948;10.696;2022-07-22T17:35:25;27.10;92.60
30572;DHT22;17348;50.948;10.696;2022-07-22T17:38:28;27.10;92.90
30572;DHT22;17348;50.948;10.696;2022-07-22T17:41:31;27.00;93.20
30572;DHT22;17348;50.948;10.696;2022-07-22T17:44:33;26.90;93.50
30572;DHT22;17348;50.948;10.696;2022-07-22T17:47:36;26.80;93.70
30572;DHT22;17348;50.948;10.696;2022-07-22T17:50:38;26.70;93.90
30572;DHT22;17348;50.948;10.696;2022-07-22T17:53:42;26.70;94.10
30572;DHT22;17348;50.948;10.696;2022-07-22T17:56:44;26.70;94.00
30572;DHT22;17348;50.948;10.696;2022-07-22T17:59:47;26.70;94.40
30572;DHT22;17348;50.948;10.696;2022-07-22T18:02:49;26.60;94.40
30572;DHT22;17348;50.948;10.696;2022-07-22T18:05:51;26.40;94.50
30572;DHT22;17348;50.948;10.696;2022-07-22T18:08:55;26.20;94.70
30572;DHT22;17348;50.948;10.696;2022-07-22T18:11:58;26.10;95.00
30572;DHT22;17348;50.948;10.696;2022-07-22T18:15:03;26.10;95.00
30572;DHT22;17348;50.948;10.696;2022-07-22T18:18:05;26.00;95.30
30572;DHT22;17348;50.948;10.696;2022-07-22T18:21:08;25.90;95.50
30572;DHT22;17348;50.948;10.696;2022-07-22T18:24:11;25.70;95.70
30572;DHT22;17348;50.948;10.696;2022-07-22T18:27:14;25.70;96.00
30572;DHT22;17348;50.948;10.696;2022-07-22T18:30:17;25.40;96.20
30572;DHT22;17348;50.948;10.696;2022-07-22T18:33:19;25.30;96.50
30572;DHT22;17348;50.948;10.696;2022-07-22T18:36:21;25.10;96.80
30572;DHT22;17348;50.948;10.696;2022-07-22T18:39:25;25.00;97.00
30572;DHT22;17348;50.948;10.696;2022-07-22T18:42:27;24.90;97.40
30572;DHT22;17348;50.948;10.696;2022-07-22T18:45:30;24.70;97.60
30572;DHT22;17348;50.948;10.696;2022-07-22T18:48:32;24.60;97.90
30572;DHT22;17348;50.948;10.696;2022-07-22T18:51:34;24.50;98.30
30572;DHT22;17348;50.948;10.696;2022-07-22T18:54:38;24.30;98.70
30572;DHT22;17348;50.948;10.696;2022-07-22T18:57:40;24.20;98.90